Time;durP1;ratioP1;P1;durP2;ratioP2;P2;SDS_P1;SDS_P2;PMS_P1;PMS_P2;Temp;Humidity;BMP_temperature;BMP_pressure;BME280_temperature;BME280_humidity;BME280_pressure;Samples;Min_cycle;Max_cycle;Signal;HPM_P1;HPM_P2
2023/02/07 00:01:11;;;;;;;22.43;11.60;;;-2.60;99.90;;;;;;4867986;29;20925;-73
2023/02/07 00:03:37;;;;;;;17.67;11.23;;;-2.60;99.90;;;;;;4871052;29;20191;-73
2023/02/07 00:06:15;;;;;;;21.43;11.80;;;-2.60;99.90;;;;;;4868535;29;20406;-73
2023/02/07 00:08:42;;;;;;;14.30;10.00;;;-2.60;99.90;;;;;;4877377;29;20445;-73
2023/02/07 00:11:10;;;;;;;17.80;11.53;;;-2.70;99.90;;;;;;4890818;29;20428;-72
2023/02/07 00:13:37;;;;;;;21.53;11.47;;;-2.70;99.90;;;;;;4871390;29;20502;-73
2023/02/07 00:16:04;;;;;;;15.30;11.10;;;-2.70;99.90;;;;;;4877669;29;20424;-73
2023/02/07 00:18:31;;;;;;;22.70;11.97;;;-2.80;99.90;;;;;;4871890;29;20832;-73
2023/02/07 00:21:00;;;;;;;20.20;13.00;;;-2.80;99.90;;;;;;4873458;29;20493;-73
2023/02/07 00:23:27;;;;;;;21.00;11.60;;;-2.80;99.90;;;;;;4873623;29;20407;-73
2023/02/07 00:25:52;;;;;;;13.80;10.23;;;-2.80;99.90;;;;;;4883437;29;20412;-73
2023/02/07 00:28:18;;;;;;;19.00;12.17;;;-2.80;99.90;;;;;;4878075;29;20425;-73
2023/02/07 00:30:43;;;;;;;15.53;10.97;;;-2.80;99.90;;;;;;4874383;29;20185;-73
2023/02/07 00:33:09;;;;;;;22.07;14.37;;;-2.90;99.90;;;;;;4870964;29;20184;-72
2023/02/07 00:35:35;;;;;;;14.83;10.57;;;-2.90;99.90;;;;;;4869685;29;20189;-73
2023/02/07 00:38:00;;;;;;;29.53;11.20;;;-2.90;99.90;;;;;;4867564;29;20217;-73
2023/02/07 00:40:26;;;;;;;17.90;11.40;;;-2.90;99.90;;;;;;4868424;29;20200;-73
2023/02/07 00:42:51;;;;;;;22.90;13.13;;;-2.90;99.90;;;;;;4867672;29;20177;-73
2023/02/07 00:45:17;;;;;;;23.30;13.83;;;-2.90;99.90;;;;;;4868488;29;20257;-73
2023/02/07 00:47:43;;;;;;;21.77;12.10;;;-2.90;99.90;;;;;;4859302;29;20193;-73
2023/02/07 00:50:08;;;;;;;22.33;12.73;;;-2.90;99.90;;;;;;4870673;29;20208;-72
2023/02/07 00:52:34;;;;;;;25.83;12.90;;;-3.00;99.90;;;;;;4873939;29;20238;-72
2023/02/07 00:54:59;;;;;;;16.37;12.67;;;-3.00;99.90;;;;;;4868057;29;20187;-73
2023/02/07 00:57:25;;;;;;;16.80;11.33;;;-3.00;99.90;;;;;;4867915;29;20225;-72
2023/02/07 00:59:51;;;;;;;19.87;10.67;;;-3.00;99.90;;;;;;4870222;29;20201;-72
2023/02/07 01:02:16;;;;;;;21.63;11.30;;;-3.00;99.90;;;;;;4868931;29;20177;-73
2023/02/07 01:04:42;;;;;;;21.23;12.30;;;-3.00;99.90;;;;;;4870135;29;20204;-74
2023/02/07 01:07:08;;;;;;;16.87;10.00;;;-3.10;99.90;;;;;;4869872;29;20197;-73
2023/02/07 01:09:33;;;;;;;21.20;12.67;;;-3.10;99.90;;;;;;4861448;29;20188;-72
2023/02/07 01:11:59;;;;;;;16.40;12.90;;;-2.90;99.90;;;;;;4868545;29;20283;-73
2023/02/07 01:14:25;;;;;;;16.67;10.30;;;-2.80;99.90;;;;;;4865867;29;20645;-73
2023/02/07 01:16:51;;;;;;;22.70;13.27;;;-2.90;99.90;;;;;;4874305;29;20320;-72
2023/02/07 01:19:17;;;;;;;21.77;10.80;;;-3.00;99.90;;;;;;4868660;29;20909;-72
2023/02/07 01:21:43;;;;;;;14.60;10.43;;;-3.10;99.90;;;;;;4869973;29;20173;-73
2023/02/07 01:24:09;;;;;;;23.07;13.10;;;-3.20;99.90;;;;;;4883177;29;20574;-73
2023/02/07 01:26:36;;;;;;;22.50;11.00;;;-3.30;99.90;;;;;;4869609;29;20178;-72
2023/02/07 01:29:02;;;;;;;30.77;12.70;;;-3.30;99.90;;;;;;4879277;29;20444;-73
2023/02/07 01:31:28;;;;;;;16.80;10.87;;;-3.30;99.90;;;;;;4882321;29;20422;-73
2023/02/07 01:33:56;;;;;;;24.93;13.83;;;-3.20;99.90;;;;;;4870817;29;20916;-73
2023/02/07 01:36:22;;;;;;;21.00;12.10;;;-3.30;99.90;;;;;;4876804;29;20421;-73
2023/02/07 01:38:48;;;;;;;23.00;13.03;;;-3.40;99.90;;;;;;4869958;29;20952;-73
2023/02/07 01:41:14;;;;;;;19.23;11.10;;;-3.50;99.90;;;;;;4883964;29;20496;-72
2023/02/07 01:43:58;;;;;;;22.20;13.43;;;-3.50;99.90;;;;;;4866088;29;20181;-72
2023/02/07 01:46:24;;;;;;;19.07;11.30;;;-3.60;99.90;;;;;;4865023;29;20269;-72
2023/02/07 01:48:52;;;;;;;17.47;12.10;;;-3.60;99.90;;;;;;4865261;29;20477;-73
2023/02/07 01:51:17;;;;;;;17.40;12.30;;;-3.60;99.90;;;;;;4873659;29;20418;-73
2023/02/07 01:53:43;;;;;;;23.77;15.37;;;-3.70;99.90;;;;;;4866317;29;20418;-72
2023/02/07 01:56:11;;;;;;;19.50;10.97;;;-3.70;99.90;;;;;;4866464;29;20253;-72
2023/02/07 01:58:38;;;;;;;22.80;12.10;;;-3.70;99.90;;;;;;4871916;29;20216;-72
2023/02/07 02:01:09;;;;;;;23.40;11.77;;;-3.70;99.90;;;;;;4864260;29;20466;-73
2023/02/07 02:03:40;;;;;;;19.00;10.93;;;-3.70;99.90;;;;;;4859186;29;20424;-72
2023/02/07 02:06:06;;;;;;;24.53;12.73;;;-3.70;99.90;;;;;;4869636;29;20449;-73
2023/02/07 02:08:32;;;;;;;15.40;10.07;;;-3.80;99.90;;;;;;4872746;29;20441;-72
2023/02/07 02:11:22;;;;;;;20.90;12.70;;;-3.80;99.90;;;;;;4866052;29;20418;-72
2023/02/07 02:13:58;;;;;;;18.57;12.40;;;-3.80;99.90;;;;;;4865138;29;20177;-73
2023/02/07 02:16:55;;;;;;;22.65;13.68;;;-3.80;99.90;;;;;;4863044;29;20411;-72
2023/02/07 02:19:29;;;;;;;19.50;10.93;;;-3.90;99.90;;;;;;4857587;29;20190;-72
2023/02/07 02:22:37;;;;;;;16.40;12.90;;;-3.90;99.90;;;;;;4865640;29;20440;-72
2023/02/07 02:25:21;;;;;;;18.50;12.47;;;-3.90;99.90;;;;;;4858660;29;20493;-71
2023/02/07 02:28:05;;;;;;;20.57;12.60;;;-3.80;99.90;;;;;;4874003;29;20432;-73
2023/02/07 02:30:57;;;;;;;19.67;12.00;;;-3.80;99.90;;;;;;4867775;29;20426;-72
2023/02/07 02:33:44;;;;;;;18.70;11.93;;;-3.80;99.90;;;;;;4866696;29;20173;-72
2023/02/07 02:36:20;;;;;;;18.50;10.33;;;-3.80;99.90;;;;;;4863614;29;20776;-72
2023/02/07 02:39:01;;;;;;;17.47;9.80;;;-3.80;99.90;;;;;;4876418;29;20449;-73
2023/02/07 02:41:48;;;;;;;17.80;11.63;;;-3.80;99.90;;;;;;4872187;29;20409;-72
2023/02/07 02:44:24;;;;;;;21.83;10.23;;;-3.80;99.90;;;;;;4869425;29;20410;-72
2023/02/07 02:46:51;;;;;;;20.07;11.00;;;-3.80;99.90;;;;;;4869633;29;20417;-72
2023/02/07 02:49:18;;;;;;;13.73;9.63;;;-3.80;99.90;;;;;;4869552;29;20505;-72
2023/02/07 02:51:43;;;;;;;18.93;10.60;;;-3.80;99.90;;;;;;4876263;29;20422;-72
2023/02/07 02:54:29;;;;;;;13.33;9.60;;;-3.70;99.90;;;;;;4863163;29;20414;-73
2023/02/07 02:57:26;;;;;;;38.13;11.43;;;-3.70;99.90;;;;;;4873803;29;20181;-73
2023/02/07 03:00:10;;;;;;;13.87;8.33;;;-3.70;99.90;;;;;;4872443;29;20477;-72
2023/02/07 03:03:04;;;;;;;21.57;9.60;;;-3.70;99.90;;;;;;4884942;29;20457;-72
2023/02/07 03:05:59;;;;;;;17.63;11.20;;;-3.70;99.90;;;;;;4870572;29;20432;-72
2023/02/07 03:08:50;;;;;;;13.80;9.10;;;-3.70;99.90;;;;;;4876780;29;20478;-72
2023/02/07 03:11:18;;;;;;;20.23;12.20;;;-3.70;99.90;;;;;;4868524;29;20771;-71
2023/02/07 03:14:02;;;;;;;20.73;10.70;;;-3.70;99.90;;;;;;4872295;29;20500;-72
2023/02/07 03:16:47;;;;;;;22.53;11.47;;;-3.60;99.90;;;;;;4882528;29;20429;-72
2023/02/07 03:19:22;;;;;;;17.43;11.07;;;-3.60;99.90;;;;;;4865909;29;20816;-73
2023/02/07 03:21:53;;;;;;;13.77;7.47;;;-3.60;99.90;;;;;;4868347;29;20410;-72
2023/02/07 03:24:27;;;;;;;12.50;9.57;;;-3.50;99.90;;;;;;4859765;29;20421;-73
2023/02/07 03:26:58;;;;;;;18.20;11.73;;;-3.50;99.90;;;;;;4874991;29;20447;-73
2023/02/07 03:29:27;;;;;;;15.07;10.10;;;-3.50;99.90;;;;;;4869576;29;20481;-73
2023/02/07 03:31:57;;;;;;;21.53;9.60;;;-3.50;99.90;;;;;;4873113;29;20423;-72
2023/02/07 03:34:31;;;;;;;15.60;11.00;;;-3.50;99.90;;;;;;4869668;29;20846;-73
2023/02/07 03:37:09;;;;;;;18.43;12.30;;;-3.50;99.90;;;;;;4869124;29;20464;-73
2023/02/07 03:39:35;;;;;;;20.30;10.57;;;-3.50;99.90;;;;;;4875091;29;21011;-72
2023/02/07 03:42:20;;;;;;;16.83;9.37;;;-3.50;99.90;;;;;;4873937;29;20419;-72
2023/02/07 03:44:47;;;;;;;16.97;11.00;;;-3.50;99.90;;;;;;4855495;29;20424;-73
2023/02/07 03:47:16;;;;;;;13.17;9.80;;;-3.50;99.90;;;;;;4863495;29;20498;-73
2023/02/07 03:49:41;;;;;;;15.93;10.67;;;-3.50;99.90;;;;;;4871584;29;20474;-73
2023/02/07 03:52:07;;;;;;;10.33;9.00;;;-3.60;99.90;;;;;;4865855;29;20425;-72
2023/02/07 03:54:33;;;;;;;16.17;10.57;;;-3.50;99.90;;;;;;4869928;29;20252;-72
2023/02/07 03:56:58;;;;;;;13.70;9.13;;;-3.60;99.90;;;;;;4871612;29;20197;-73
2023/02/07 03:59:24;;;;;;;12.20;9.47;;;-3.50;99.90;;;;;;4869199;29;20202;-73
2023/02/07 04:01:50;;;;;;;16.37;10.20;;;-3.60;99.90;;;;;;4889086;29;20177;-72
2023/02/07 04:04:15;;;;;;;17.03;9.03;;;-3.60;99.90;;;;;;4863929;29;20173;-72
2023/02/07 04:06:41;;;;;;;15.47;9.33;;;-3.70;99.90;;;;;;4875158;29;20177;-73
2023/02/07 04:09:07;;;;;;;15.90;8.87;;;-3.70;99.90;;;;;;4871972;29;20177;-72
2023/02/07 04:11:32;;;;;;;18.27;10.20;;;-3.70;99.90;;;;;;4890637;29;20181;-73
2023/02/07 04:13:58;;;;;;;17.30;9.63;;;-3.70;99.90;;;;;;4871394;29;20174;-73
2023/02/07 04:16:23;;;;;;;19.40;10.20;;;-3.70;99.90;;;;;;4869369;29;20180;-72
2023/02/07 04:18:49;;;;;;;12.73;9.27;;;-3.70;99.90;;;;;;4866106;29;20292;-72
2023/02/07 04:21:15;;;;;;;20.30;11.10;;;-3.70;99.90;;;;;;4871852;29;20653;-72
2023/02/07 04:23:41;;;;;;;17.17;10.20;;;-3.70;99.90;;;;;;4871392;29;20584;-72
2023/02/07 04:26:09;;;;;;;24.97;11.80;;;-3.70;99.90;;;;;;4870596;29;20269;-72
2023/02/07 04:28:34;;;;;;;20.20;8.97;;;-3.70;99.90;;;;;;4851277;29;20212;-72
2023/02/07 04:31:00;;;;;;;20.20;10.20;;;-3.60;99.90;;;;;;4874508;29;20654;-72
2023/02/07 04:33:26;;;;;;;15.00;10.73;;;-3.60;99.90;;;;;;4864142;29;20292;-74
2023/02/07 04:36:02;;;;;;;20.20;12.43;;;-3.60;99.90;;;;;;4869382;29;20188;-72
2023/02/07 04:38:28;;;;;;;20.67;11.57;;;-3.60;99.90;;;;;;4870437;29;20216;-73
2023/02/07 04:41:03;;;;;;;18.00;10.27;;;-3.60;99.90;;;;;;4873070;29;20469;-73
2023/02/07 04:43:30;;;;;;;20.57;11.13;;;-3.60;99.90;;;;;;4873236;29;20420;-72
2023/02/07 04:45:55;;;;;;;16.70;10.93;;;-3.60;99.90;;;;;;4864302;29;20907;-74
2023/02/07 04:48:21;;;;;;;19.97;10.73;;;-3.60;99.90;;;;;;4874555;29;20520;-72
2023/02/07 04:50:47;;;;;;;20.23;12.50;;;-3.60;99.90;;;;;;4870620;29;20181;-72
2023/02/07 04:53:12;;;;;;;16.47;10.87;;;-3.60;99.90;;;;;;4869537;29;20185;-72
2023/02/07 04:55:38;;;;;;;14.83;11.50;;;-3.60;99.90;;;;;;4886138;29;20193;-72
2023/02/07 04:58:05;;;;;;;20.87;12.20;;;-3.60;99.90;;;;;;4864392;29;20305;-72
2023/02/07 05:00:30;;;;;;;16.67;12.10;;;-3.60;99.90;;;;;;4874608;29;20281;-73
2023/02/07 05:02:56;;;;;;;16.03;11.30;;;-3.60;99.90;;;;;;4872034;29;20916;-73
2023/02/07 05:05:21;;;;;;;16.47;9.80;;;-3.70;99.90;;;;;;4869509;29;20185;-73
2023/02/07 05:07:47;;;;;;;18.70;11.83;;;-3.80;99.90;;;;;;4868255;29;20197;-72
2023/02/07 05:10:13;;;;;;;20.17;12.27;;;-3.80;99.90;;;;;;4869358;29;20556;-72
2023/02/07 05:12:39;;;;;;;15.43;10.03;;;-3.80;99.90;;;;;;4875273;29;20287;-72
2023/02/07 05:15:04;;;;;;;24.67;11.47;;;-3.90;99.90;;;;;;4870015;29;20181;-73
2023/02/07 05:17:33;;;;;;;15.27;10.30;;;-3.80;99.90;;;;;;4861419;29;20221;-72
2023/02/07 05:20:00;;;;;;;18.17;11.90;;;-3.80;99.90;;;;;;4866582;29;20560;-72
2023/02/07 05:22:26;;;;;;;15.77;10.93;;;-3.70;99.90;;;;;;4887064;29;20964;-72
2023/02/07 05:24:51;;;;;;;23.10;12.63;;;-3.80;99.90;;;;;;4867840;29;20505;-73
2023/02/07 05:27:17;;;;;;;18.00;12.93;;;-3.80;99.90;;;;;;4857895;29;20442;-73
2023/02/07 05:29:43;;;;;;;15.87;11.40;;;-3.90;99.90;;;;;;4866633;29;20198;-73
2023/02/07 05:34:56;;;;;;;18.63;12.40;;;-3.80;99.90;;;;;;4872910;29;20185;-72
2023/02/07 05:37:22;;;;;;;12.40;10.33;;;-3.80;99.90;;;;;;4869575;29;20960;-73
2023/02/07 05:39:47;;;;;;;17.50;13.00;;;-3.70;99.90;;;;;;4873383;29;20233;-72
2023/02/07 05:42:13;;;;;;;22.00;11.43;;;-3.70;99.90;;;;;;4863664;29;20313;-72
2023/02/07 05:44:39;;;;;;;22.27;14.07;;;-3.80;99.90;;;;;;4868997;29;20185;-72
2023/02/07 05:47:04;;;;;;;23.20;14.33;;;-3.80;99.90;;;;;;4872325;29;20609;-72
2023/02/07 05:49:30;;;;;;;15.27;11.87;;;-3.80;99.90;;;;;;4878082;29;20290;-72
2023/02/07 05:51:56;;;;;;;19.60;13.90;;;-3.80;99.90;;;;;;4875260;29;20193;-73
2023/02/07 05:54:22;;;;;;;19.00;12.03;;;-3.80;99.90;;;;;;4875025;29;20180;-73
2023/02/07 05:56:47;;;;;;;21.20;12.20;;;-3.80;99.90;;;;;;4875826;29;20189;-73
2023/02/07 05:59:13;;;;;;;23.77;13.20;;;-3.80;99.90;;;;;;4866461;29;20728;-73
2023/02/07 06:01:38;;;;;;;16.50;11.63;;;-3.70;99.90;;;;;;4867140;29;20173;-74
2023/02/07 06:04:09;;;;;;;20.27;13.10;;;-3.80;99.90;;;;;;4870573;29;20249;-72
2023/02/07 06:06:35;;;;;;;21.33;12.60;;;-3.80;99.90;;;;;;4869808;29;20186;-73
2023/02/07 06:09:04;;;;;;;22.97;12.20;;;-3.90;99.90;;;;;;4870991;29;20918;-73
2023/02/07 06:11:35;;;;;;;18.80;11.80;;;-3.90;99.90;;;;;;4870222;29;20649;-71
2023/02/07 06:14:11;;;;;;;16.57;11.07;;;-3.90;99.90;;;;;;4880469;29;20516;-72
2023/02/07 06:16:41;;;;;;;18.50;12.57;;;-3.80;99.90;;;;;;4868810;29;20902;-73
2023/02/07 06:19:13;;;;;;;19.47;12.10;;;-3.90;99.90;;;;;;4886764;29;20426;-73
2023/02/07 06:21:38;;;;;;;18.47;11.83;;;-3.90;99.90;;;;;;4877440;29;20504;-73
2023/02/07 06:24:05;;;;;;;20.30;11.63;;;-4.00;99.90;;;;;;4873501;29;20496;-72
2023/02/07 06:26:30;;;;;;;25.57;13.47;;;-4.00;99.90;;;;;;4870219;29;20649;-72
2023/02/07 06:28:56;;;;;;;22.90;12.73;;;-4.00;99.90;;;;;;4869942;29;20442;-73
2023/02/07 06:31:23;;;;;;;16.40;11.07;;;-4.00;99.90;;;;;;4866780;29;20614;-71
2023/02/07 06:33:48;;;;;;;16.33;10.73;;;-4.00;99.90;;;;;;4877340;29;20180;-73
2023/02/07 06:36:14;;;;;;;20.70;13.20;;;-4.00;99.90;;;;;;4872972;29;20426;-73
2023/02/07 06:38:39;;;;;;;14.70;11.27;;;-4.00;99.90;;;;;;4882631;29;20213;-72
2023/02/07 06:41:09;;;;;;;17.00;11.27;;;-4.00;99.90;;;;;;4882712;29;20257;-73
2023/02/07 06:43:36;;;;;;;20.83;11.17;;;-4.00;99.90;;;;;;4892558;29;20612;-73
2023/02/07 06:46:01;;;;;;;15.53;10.33;;;-3.90;99.90;;;;;;4886570;29;20430;-73
2023/02/07 06:48:27;;;;;;;16.53;11.80;;;-3.90;99.90;;;;;;4873144;29;20433;-72
2023/02/07 06:50:52;;;;;;;17.90;11.50;;;-3.90;99.90;;;;;;4869212;29;20181;-73
2023/02/07 06:53:18;;;;;;;19.23;10.70;;;-3.90;99.90;;;;;;4874044;29;20181;-73
2023/02/07 06:55:44;;;;;;;20.60;13.17;;;-3.90;99.90;;;;;;4871950;29;20188;-72
2023/02/07 06:58:09;;;;;;;20.93;10.90;;;-3.80;99.90;;;;;;4873096;29;20209;-73
2023/02/07 07:00:35;;;;;;;16.90;12.60;;;-3.80;99.90;;;;;;4870286;29;20209;-72
2023/02/07 07:03:01;;;;;;;21.73;11.97;;;-3.80;99.90;;;;;;4873541;29;20264;-72
2023/02/07 07:05:28;;;;;;;15.50;12.07;;;-3.70;99.90;;;;;;4871443;29;21075;-72
2023/02/07 07:07:54;;;;;;;24.93;13.10;;;-3.70;99.90;;;;;;4863150;29;20193;-72
2023/02/07 07:10:20;;;;;;;15.50;11.57;;;-3.50;99.90;;;;;;4864742;29;20427;-72
2023/02/07 07:12:46;;;;;;;19.50;12.87;;;-3.20;99.90;;;;;;4888664;29;20429;-72
2023/02/07 07:15:12;;;;;;;24.40;14.97;;;-3.10;99.90;;;;;;4874786;29;20421;-72
2023/02/07 07:17:38;;;;;;;20.93;13.93;;;-3.10;99.90;;;;;;4879240;29;20522;-74
2023/02/07 07:20:06;;;;;;;26.63;14.07;;;-3.10;99.90;;;;;;4869532;29;20213;-73
2023/02/07 07:22:32;;;;;;;22.70;14.17;;;-3.10;99.90;;;;;;4877355;29;20180;-73
2023/02/07 07:24:58;;;;;;;29.00;14.73;;;-3.00;99.90;;;;;;4873747;29;20730;-72
2023/02/07 07:27:23;;;;;;;22.23;14.30;;;-3.00;99.90;;;;;;4860638;29;20472;-72
2023/02/07 07:29:49;;;;;;;22.57;15.80;;;-2.90;99.90;;;;;;4863906;29;20189;-72
2023/02/07 07:32:15;;;;;;;21.00;14.70;;;-2.90;99.90;;;;;;4862883;29;20246;-72
2023/02/07 07:34:41;;;;;;;36.73;17.50;;;-2.80;99.90;;;;;;4875245;29;20260;-73
2023/02/07 07:37:07;;;;;;;33.00;18.77;;;-2.80;99.90;;;;;;4864230;29;20515;-73
2023/02/07 07:39:33;;;;;;;28.10;16.63;;;-2.70;99.90;;;;;;4869740;29;20999;-72
2023/02/07 07:41:58;;;;;;;29.03;16.33;;;-2.60;99.90;;;;;;4872268;29;20465;-71
2023/02/07 07:44:24;;;;;;;31.90;17.57;;;-2.40;99.90;;;;;;4869834;29;20182;-72
2023/02/07 07:46:50;;;;;;;27.67;17.03;;;-2.20;99.90;;;;;;4867088;29;20188;-73
2023/02/07 07:49:16;;;;;;;21.70;14.60;;;-2.10;99.90;;;;;;4886081;29;20653;-74
2023/02/07 07:51:42;;;;;;;25.87;17.33;;;-2.00;99.90;;;;;;4871788;29;20637;-74
2023/02/07 07:54:07;;;;;;;27.87;17.57;;;-2.00;99.90;;;;;;4885492;29;20176;-72
2023/02/07 07:56:34;;;;;;;23.80;18.30;;;-1.90;99.90;;;;;;4870519;29;20418;-73
2023/02/07 07:59:00;;;;;;;23.23;15.03;;;-1.80;99.90;;;;;;4873393;29;20201;-72
2023/02/07 08:01:26;;;;;;;20.93;14.50;;;-1.70;99.90;;;;;;4870972;29;20429;-73
2023/02/07 08:03:51;;;;;;;25.30;15.00;;;-1.60;99.90;;;;;;4867611;29;20418;-74
2023/02/07 08:06:17;;;;;;;25.63;16.57;;;-1.50;99.90;;;;;;4874083;29;20185;-72
2023/02/07 08:08:43;;;;;;;29.30;17.10;;;-1.40;99.90;;;;;;4864584;29;20201;-73
2023/02/07 08:11:10;;;;;;;27.87;17.60;;;-1.30;99.90;;;;;;4874878;29;20482;-74
2023/02/07 08:13:36;;;;;;;33.53;18.53;;;-1.20;99.90;;;;;;4866999;29;20482;-73
2023/02/07 08:16:04;;;;;;;30.30;19.20;;;-1.00;99.90;;;;;;4874541;29;20789;-73
2023/02/07 08:18:29;;;;;;;26.90;16.70;;;-1.00;99.90;;;;;;4869291;29;20485;-73
2023/02/07 08:20:55;;;;;;;32.37;17.20;;;-0.50;99.90;;;;;;4873686;29;20971;-73
2023/02/07 08:23:21;;;;;;;26.50;18.40;;;0.20;99.90;;;;;;4870722;29;20184;-73
2023/02/07 08:25:48;;;;;;;27.53;18.53;;;0.80;99.90;;;;;;4863405;29;20423;-72
2023/02/07 08:28:15;;;;;;;28.57;16.37;;;1.70;99.90;;;;;;4859461;29;20457;-73
2023/02/07 08:30:41;;;;;;;27.27;17.43;;;2.30;99.90;;;;;;4868812;29;20457;-72
2023/02/07 08:33:07;;;;;;;25.23;17.90;;;2.70;99.90;;;;;;4885675;29;20937;-73
2023/02/07 08:35:32;;;;;;;25.17;17.17;;;3.10;99.90;;;;;;4869174;29;20489;-73
2023/02/07 08:37:58;;;;;;;27.87;17.17;;;2.80;99.90;;;;;;4870829;29;20547;-74
2023/02/07 08:40:25;;;;;;;30.30;18.40;;;3.20;99.90;;;;;;4870305;29;20221;-73
2023/02/07 08:42:50;;;;;;;26.20;18.70;;;3.30;99.90;;;;;;4872117;29;20184;-73
2023/02/07 08:45:16;;;;;;;27.10;16.97;;;3.40;99.90;;;;;;4883747;29;20430;-74
2023/02/07 08:47:45;;;;;;;28.17;17.00;;;3.40;99.90;;;;;;4871112;29;20208;-74
2023/02/07 08:50:15;;;;;;;27.13;17.20;;;3.10;99.90;;;;;;4867448;29;20432;-75
2023/02/07 08:52:41;;;;;;;21.10;14.73;;;2.90;99.90;;;;;;4867434;29;20429;-73
2023/02/07 08:55:07;;;;;;;23.00;15.10;;;2.60;99.90;;;;;;4871973;29;20774;-73
2023/02/07 08:57:33;;;;;;;22.67;14.70;;;2.80;99.90;;;;;;4870833;29;20498;-74
2023/02/07 08:59:59;;;;;;;25.77;15.33;;;3.30;99.90;;;;;;4872630;29;20473;-74
2023/02/07 09:02:25;;;;;;;29.10;16.50;;;3.90;99.90;;;;;;4848084;29;20486;-73
2023/02/07 09:04:51;;;;;;;28.63;15.37;;;4.30;99.90;;;;;;4855767;29;20431;-74
2023/02/07 09:07:21;;;;;;;19.23;13.50;;;4.90;99.90;;;;;;4865724;29;20472;-73
2023/02/07 09:10:01;;;;;;;22.50;14.87;;;4.90;99.90;;;;;;4859156;29;20212;-72
2023/02/07 09:12:32;;;;;;;22.87;15.77;;;5.50;99.90;;;;;;4869587;29;20426;-72
2023/02/07 09:15:05;;;;;;;20.03;15.20;;;5.60;99.90;;;;;;4871622;29;20490;-72
2023/02/07 09:17:31;;;;;;;19.23;12.80;;;5.10;99.90;;;;;;4867863;29;20457;-72
2023/02/07 09:20:00;;;;;;;22.80;14.40;;;5.40;99.90;;;;;;4870761;29;20465;-73
2023/02/07 09:22:26;;;;;;;23.80;15.47;;;5.00;99.90;;;;;;4873139;29;20420;-73
2023/02/07 09:24:51;;;;;;;24.27;15.33;;;5.30;99.90;;;;;;4870096;29;20926;-72
2023/02/07 09:27:17;;;;;;;17.90;13.77;;;4.70;99.90;;;;;;4860171;29;20236;-72
2023/02/07 09:29:42;;;;;;;20.70;11.93;;;4.00;99.90;;;;;;4868468;29;20186;-72
2023/02/07 09:32:08;;;;;;;18.77;13.03;;;3.70;99.90;;;;;;4862125;29;20188;-72
2023/02/07 09:34:34;;;;;;;20.70;13.30;;;3.00;99.90;;;;;;4874674;29;20568;-72
2023/02/07 09:36:59;;;;;;;23.50;14.67;;;2.30;99.90;;;;;;4871203;29;20221;-72
2023/02/07 09:39:25;;;;;;;20.27;12.67;;;2.30;99.90;;;;;;4875601;29;20948;-72
2023/02/07 09:42:09;;;;;;;19.07;12.83;;;2.80;99.90;;;;;;4880279;29;20181;-73
2023/02/07 09:44:58;;;;;;;19.00;13.47;;;3.10;99.90;;;;;;4871038;29;20523;-72
2023/02/07 09:47:24;;;;;;;21.10;13.50;;;3.60;99.90;;;;;;4874393;29;20942;-72
2023/02/07 09:50:05;;;;;;;12.30;10.33;;;3.80;99.90;;;;;;4856451;29;20530;-73
2023/02/07 09:52:46;;;;;;;20.23;13.40;;;3.90;99.90;;;;;;4868711;29;20440;-72
2023/02/07 09:55:31;;;;;;;17.97;12.30;;;3.20;99.90;;;;;;4860905;29;20812;-73
2023/02/07 09:58:04;;;;;;;18.70;13.20;;;2.40;99.90;;;;;;4852035;29;20936;-72
2023/02/07 10:00:34;;;;;;;18.63;10.60;;;2.10;99.90;;;;;;4868765;29;20999;-72
2023/02/07 10:03:23;;;;;;;19.50;12.13;;;2.30;99.90;;;;;;4865516;29;20993;-73
2023/02/07 10:05:59;;;;;;;18.40;11.33;;;2.30;99.90;;;;;;4865462;29;20506;-71
2023/02/07 10:08:25;;;;;;;21.17;11.70;;;2.80;99.90;;;;;;4856013;29;20441;-71
2023/02/07 10:11:33;;;;;;;13.90;10.93;;;3.30;99.90;;;;;;4872844;29;20513;-72
2023/02/07 10:14:10;;;;;;;18.20;11.73;;;3.40;99.90;;;;;;4860094;29;20457;-72
2023/02/07 10:16:55;;;;;;;14.90;11.10;;;3.20;99.90;;;;;;4884353;29;20850;-72
2023/02/07 10:19:43;;;;;;;16.47;10.87;;;3.00;99.90;;;;;;4861159;29;20425;-74
2023/02/07 10:22:16;;;;;;;19.60;10.83;;;2.60;99.90;;;;;;4877713;29;20828;-72
2023/02/07 10:25:20;;;;;;;16.10;10.87;;;2.30;99.90;;;;;;4866627;29;20438;-73
2023/02/07 10:28:02;;;;;;;18.80;11.33;;;2.40;99.90;;;;;;4854487;29;20578;-73
2023/02/07 10:30:32;;;;;;;17.20;10.07;;;2.50;99.90;;;;;;4866763;29;20932;-71
2023/02/07 10:33:11;;;;;;;17.87;11.57;;;2.00;99.90;;;;;;4858455;29;20429;-73
2023/02/07 10:35:38;;;;;;;20.00;11.23;;;2.00;99.90;;;;;;4873134;29;20429;-71
2023/02/07 10:38:10;;;;;;;16.87;11.23;;;2.00;99.90;;;;;;4884090;29;20521;-73
2023/02/07 10:40:43;;;;;;;14.77;10.43;;;2.00;99.90;;;;;;4869886;29;20596;-73
2023/02/07 10:43:27;;;;;;;17.10;10.97;;;2.30;99.90;;;;;;4865542;29;20421;-73
2023/02/07 10:46:00;;;;;;;19.67;12.17;;;2.00;99.90;;;;;;4864876;29;20417;-71
2023/02/07 10:48:27;;;;;;;21.43;11.43;;;1.90;99.90;;;;;;4862552;29;20437;-72
2023/02/07 10:50:52;;;;;;;16.87;10.67;;;1.80;99.90;;;;;;4870932;29;20422;-73
2023/02/07 10:53:41;;;;;;;20.00;13.03;;;1.80;99.90;;;;;;4870154;29;20815;-72
2023/02/07 10:56:15;;;;;;;18.33;11.67;;;1.70;99.90;;;;;;4860791;29;20777;-73
2023/02/07 10:58:41;;;;;;;16.23;11.17;;;2.20;99.90;;;;;;4887211;29;20461;-73
2023/02/07 11:01:17;;;;;;;17.43;12.30;;;2.30;99.90;;;;;;4849721;29;20860;-73
2023/02/07 11:03:42;;;;;;;17.50;11.33;;;2.30;99.90;;;;;;4876614;29;20181;-72
2023/02/07 11:06:09;;;;;;;25.07;13.23;;;2.30;99.90;;;;;;4866300;29;20509;-73
2023/02/07 11:08:36;;;;;;;17.80;10.93;;;2.00;99.90;;;;;;4877315;29;20676;-73
2023/02/07 11:11:32;;;;;;;17.73;11.53;;;2.10;99.90;;;;;;4869422;29;20430;-72
2023/02/07 11:14:06;;;;;;;19.57;10.80;;;2.00;99.90;;;;;;4861480;29;20417;-72
2023/02/07 11:16:33;;;;;;;21.30;12.17;;;1.90;99.90;;;;;;4871317;29;20872;-72
2023/02/07 11:19:00;;;;;;;16.93;12.43;;;1.80;99.90;;;;;;4873570;29;20474;-74
2023/02/07 11:21:39;;;;;;;15.50;9.20;;;1.90;99.90;;;;;;4875881;29;20461;-73
2023/02/07 11:24:07;;;;;;;21.80;11.77;;;1.90;99.90;;;;;;4868017;29;20494;-73
2023/02/07 11:26:38;;;;;;;18.90;11.23;;;2.10;99.90;;;;;;4869817;29;20418;-72
2023/02/07 11:29:12;;;;;;;14.93;11.63;;;2.20;99.90;;;;;;4873482;29;20474;-73
2023/02/07 11:31:38;;;;;;;15.17;10.50;;;2.10;99.90;;;;;;4863546;29;20472;-72
2023/02/07 11:34:20;;;;;;;23.27;11.47;;;2.30;99.90;;;;;;4858254;29;20509;-73
2023/02/07 11:36:46;;;;;;;20.70;12.57;;;2.50;99.90;;;;;;4869829;29;20505;-74
2023/02/07 11:39:16;;;;;;;15.40;10.50;;;2.50;99.90;;;;;;4872373;29;20502;-71
2023/02/07 11:41:52;;;;;;;16.33;10.83;;;2.70;99.90;;;;;;4874433;29;20414;-72
2023/02/07 11:44:18;;;;;;;16.57;10.90;;;2.50;99.90;;;;;;4870357;29;20414;-73
2023/02/07 11:46:46;;;;;;;21.03;12.00;;;2.40;99.90;;;;;;4875407;29;20443;-73
2023/02/07 11:49:26;;;;;;;19.00;11.97;;;2.60;99.90;;;;;;4866732;29;20181;-72
2023/02/07 11:51:55;;;;;;;15.87;9.77;;;2.50;99.90;;;;;;4865668;29;20417;-73
2023/02/07 11:54:21;;;;;;;16.77;12.30;;;2.60;99.90;;;;;;4881558;29;20950;-72
2023/02/07 11:57:06;;;;;;;18.53;13.37;;;2.70;99.90;;;;;;4875168;29;20421;-73
2023/02/07 11:59:33;;;;;;;19.13;11.67;;;2.80;99.90;;;;;;4875162;29;20453;-72
2023/02/07 12:02:23;;;;;;;15.17;11.30;;;2.80;99.90;;;;;;4872863;29;20513;-73
2023/02/07 12:04:50;;;;;;;15.40;11.40;;;2.50;99.90;;;;;;4866797;29;20429;-73
2023/02/07 12:07:24;;;;;;;21.27;12.60;;;2.30;99.90;;;;;;4879145;29;20437;-72
2023/02/07 12:09:59;;;;;;;19.43;11.77;;;2.20;99.90;;;;;;4859951;29;20412;-72
2023/02/07 12:12:49;;;;;;;19.37;12.27;;;2.50;99.90;;;;;;4866550;29;20485;-72
2023/02/07 12:15:24;;;;;;;15.73;10.97;;;2.50;99.90;;;;;;4866156;29;20441;-73
2023/02/07 12:18:10;;;;;;;16.43;10.90;;;2.50;99.90;;;;;;4857746;29;20458;-72
2023/02/07 12:20:50;;;;;;;19.43;11.07;;;2.70;99.90;;;;;;4862247;29;20547;-73
2023/02/07 12:23:26;;;;;;;20.80;12.50;;;2.90;99.90;;;;;;4865264;29;20801;-73
2023/02/07 12:26:00;;;;;;;15.17;10.30;;;2.90;99.90;;;;;;4860593;29;20445;-72
2023/02/07 12:28:45;;;;;;;17.40;11.70;;;2.90;99.90;;;;;;4866346;29;20473;-70
2023/02/07 12:31:47;;;;;;;16.33;11.40;;;3.10;99.90;;;;;;4864752;29;20414;-73
2023/02/07 12:34:30;;;;;;;17.20;10.83;;;3.10;99.90;;;;;;4864577;29;20529;-73
2023/02/07 12:37:19;;;;;;;19.53;11.20;;;2.90;99.90;;;;;;4874023;29;20839;-73
2023/02/07 12:39:49;;;;;;;22.13;12.77;;;3.10;99.90;;;;;;4871723;29;20516;-72
2023/02/07 12:42:34;;;;;;;19.67;11.60;;;3.20;99.90;;;;;;4864168;29;20993;-73
2023/02/07 12:45:02;;;;;;;25.70;13.53;;;3.30;99.90;;;;;;4859130;29;20509;-72
2023/02/07 12:47:41;;;;;;;21.23;12.33;;;3.40;99.90;;;;;;4860758;29;20469;-73
2023/02/07 12:50:32;;;;;;;21.20;12.70;;;3.30;99.90;;;;;;4867511;29;20450;-73